createdAt,value
2016-12-13T00:00:03.968Z,22.25
2016-12-13T00:00:37.435Z,22.28
2016-12-13T00:01:10.912Z,22.25
2016-12-13T00:01:44.391Z,22.25
2016-12-13T00:02:17.860Z,22.2
2016-12-13T00:02:51.327Z,22.35
2016-12-13T00:03:24.807Z,22.29
2016-12-13T00:03:58.270Z,22.35
2016-12-13T00:04:31.742Z,22.29
2016-12-13T00:05:05.211Z,22.25
2016-12-13T00:05:38.693Z,22.3
2016-12-13T00:06:12.174Z,22.18
2016-12-13T00:06:45.663Z,22.26
2016-12-13T00:07:19.137Z,22.25
2016-12-13T00:07:52.607Z,22.25
2016-12-13T00:08:26.074Z,22.22
2016-12-13T00:08:59.550Z,22.22
2016-12-13T00:09:33.015Z,22.18
2016-12-13T00:10:06.490Z,22.1
2016-12-13T00:10:39.955Z,22.28
2016-12-13T00:11:13.436Z,22.23
2016-12-13T00:11:46.921Z,22.3
2016-12-13T00:12:20.399Z,22.26
2016-12-13T00:12:53.867Z,22.15
2016-12-13T00:13:27.335Z,22.15
2016-12-13T00:14:00.814Z,22.22
2016-12-13T00:14:34.278Z,22.29
2016-12-13T00:15:07.751Z,22.28
2016-12-13T00:15:41.221Z,22.11
2016-12-13T00:16:14.704Z,22.14
2016-12-13T00:16:48.181Z,22.2
2016-12-13T00:17:21.658Z,22.17
2016-12-13T00:17:55.130Z,22.2
2016-12-13T00:18:28.599Z,22.17
2016-12-13T00:19:02.076Z,22.17
2016-12-13T00:19:35.538Z,22.13
2016-12-13T00:20:09.011Z,22.23
2016-12-13T00:20:42.481Z,22.18
2016-12-13T00:21:15.957Z,22.18
2016-12-13T00:21:49.436Z,22.15
2016-12-13T00:22:22.905Z,22.22
2016-12-13T00:22:56.368Z,22.2
2016-12-13T00:23:29.848Z,22.15
2016-12-13T00:24:03.314Z,22.15
2016-12-13T00:24:36.787Z,22.25
2016-12-13T00:25:10.256Z,22.11
2016-12-13T00:25:43.738Z,22.14
2016-12-13T00:26:17.218Z,22.15
2016-12-13T00:26:50.697Z,22.18
2016-12-13T00:27:24.165Z,22.2
2016-12-13T00:27:57.635Z,22.25
2016-12-13T00:28:31.113Z,22.26
2016-12-13T00:29:04.575Z,22.2
2016-12-13T00:29:38.039Z,22.15
2016-12-13T00:30:11.515Z,22.2
2016-12-13T00:30:44.998Z,22.18
2016-12-13T00:31:18.473Z,22.11
2016-12-13T00:31:51.945Z,22.15
2016-12-13T00:32:25.415Z,22.18
2016-12-13T00:32:58.888Z,22.07
2016-12-13T00:33:32.352Z,22.22
2016-12-13T00:34:05.827Z,22.14
2016-12-13T00:34:39.296Z,22.11
2016-12-13T00:35:12.773Z,22.25
2016-12-13T00:35:46.250Z,22.11
2016-12-13T00:36:19.720Z,22.14
2016-12-13T00:36:53.186Z,22.17
2016-12-13T00:37:26.665Z,22.18
2016-12-13T00:38:00.128Z,22.08
2016-12-13T00:38:33.602Z,22.2
2016-12-13T00:39:07.072Z,22.22
2016-12-13T00:39:40.547Z,22.2
2016-12-13T00:40:14.024Z,22.15
2016-12-13T00:40:47.493Z,22.11
2016-12-13T00:41:20.965Z,22.14
2016-12-13T00:41:54.442Z,22.07
2016-12-13T00:42:27.904Z,22.18
2016-12-13T00:43:01.378Z,22.22
2016-12-13T00:43:34.848Z,22.2
2016-12-13T00:44:08.327Z,22.23
2016-12-13T00:44:41.801Z,22.23
2016-12-13T00:45:15.271Z,22.11
2016-12-13T00:45:48.737Z,22.17
2016-12-13T00:46:22.214Z,22.15
2016-12-13T00:46:55.679Z,22.18
2016-12-13T00:47:29.147Z,22.23
2016-12-13T00:48:02.618Z,22.18
2016-12-13T00:48:36.093Z,22.2
2016-12-13T00:49:09.561Z,22.11
2016-12-13T00:49:43.028Z,22.18
2016-12-13T00:50:16.505Z,22.15
2016-12-13T00:50:49.972Z,22.18
2016-12-13T00:51:23.434Z,22.18
2016-12-13T00:51:56.912Z,22.1
2016-12-13T00:52:30.394Z,22.18
2016-12-13T00:53:03.869Z,22.15
2016-12-13T00:53:37.338Z,22.15
2016-12-13T00:54:10.807Z,22.14
2016-12-13T00:54:44.307Z,22.13
2016-12-13T00:55:17.771Z,22.11
2016-12-13T00:55:51.234Z,22.17
2016-12-13T00:56:24.716Z,22.04
2016-12-13T00:56:58.178Z,22.07
2016-12-13T00:57:31.656Z,22.2
2016-12-13T00:58:05.137Z,22.1
2016-12-13T00:58:38.615Z,22.15
2016-12-13T00:59:12.084Z,22.08
2016-12-13T00:59:45.552Z,22.11
2016-12-13T01:00:19.033Z,22.14
2016-12-13T01:00:52.494Z,22.11
2016-12-13T01:01:25.968Z,22.11
2016-12-13T01:01:59.437Z,22.13
2016-12-13T01:02:32.915Z,22.04
2016-12-13T01:03:06.390Z,22.08
2016-12-13T01:03:39.861Z,22.07
2016-12-13T01:04:13.331Z,22.08
2016-12-13T01:04:46.808Z,22.08
2016-12-13T01:05:20.270Z,22.1
2016-12-13T01:05:53.743Z,22.07
2016-12-13T01:06:27.211Z,22.07
2016-12-13T01:07:00.689Z,22.08
2016-12-13T01:07:34.167Z,22.07
2016-12-13T01:08:07.659Z,22.1
2016-12-13T01:08:41.143Z,22.08
2016-12-13T01:09:14.621Z,22.06
2016-12-13T01:09:48.089Z,22.04
2016-12-13T01:10:21.556Z,22.07
2016-12-13T01:10:55.035Z,22.14
2016-12-13T01:11:28.499Z,22.08
2016-12-13T01:12:01.961Z,22.07
2016-12-13T01:12:35.439Z,22.14
2016-12-13T01:13:08.920Z,22.14
2016-12-13T01:13:42.399Z,22.14
2016-12-13T01:14:15.868Z,22.08
2016-12-13T01:14:49.335Z,22.08
2016-12-13T01:15:22.815Z,22.17
2016-12-13T01:15:56.277Z,22.08
2016-12-13T01:16:29.751Z,22.11
2016-12-13T01:17:03.220Z,22.08
2016-12-13T01:17:36.697Z,22.04
2016-12-13T01:18:10.180Z,22.08
2016-12-13T01:18:43.659Z,22.07
2016-12-13T01:19:17.128Z,22.02
2016-12-13T01:19:50.594Z,22.06
2016-12-13T01:20:24.066Z,22.08
2016-12-13T01:20:57.555Z,22.07
2016-12-13T01:21:31.022Z,22.07
2016-12-13T01:22:04.485Z,22.04
2016-12-13T01:22:37.964Z,22.08
2016-12-13T01:23:11.444Z,22.07
2016-12-13T01:23:44.921Z,22.02
2016-12-13T01:24:18.391Z,22.07
2016-12-13T01:24:51.857Z,22.1
2016-12-13T01:25:25.336Z,22.08
2016-12-13T01:25:58.799Z,22.1
2016-12-13T01:26:32.273Z,22
2016-12-13T01:27:05.742Z,22.06
2016-12-13T01:27:39.220Z,22.08
2016-12-13T01:28:12.697Z,22.06
2016-12-13T01:28:46.169Z,22.04
2016-12-13T01:29:19.635Z,22.08
2016-12-13T01:29:53.113Z,22.07
2016-12-13T01:30:26.593Z,22.02
2016-12-13T01:31:00.059Z,22.08
2016-12-13T01:31:33.519Z,22.07
2016-12-13T01:32:06.999Z,22.08
2016-12-13T01:32:40.479Z,22.08
2016-12-13T01:33:13.965Z,22.08
2016-12-13T01:33:47.442Z,22.1
2016-12-13T01:34:20.911Z,22.07
2016-12-13T01:34:54.374Z,22.08
2016-12-13T01:35:27.836Z,22.06
2016-12-13T01:36:01.307Z,22.1
2016-12-13T01:36:34.777Z,22.08
2016-12-13T01:37:08.258Z,22.08
2016-12-13T01:37:41.740Z,22.07
2016-12-13T01:38:15.218Z,22.07
2016-12-13T01:38:48.688Z,21.99
2016-12-13T01:39:22.158Z,22.08
2016-12-13T01:39:55.635Z,22.06
2016-12-13T01:40:29.097Z,22.08
2016-12-13T01:41:02.572Z,22.04
2016-12-13T01:41:36.040Z,22.06
2016-12-13T01:42:09.515Z,22.06
2016-12-13T01:42:42.994Z,21.99
2016-12-13T01:43:16.463Z,22.04
2016-12-13T01:43:49.932Z,22
2016-12-13T01:44:23.407Z,22.06
2016-12-13T01:44:56.872Z,22
2016-12-13T01:45:30.335Z,22.06
2016-12-13T01:46:03.808Z,22.04
2016-12-13T01:46:37.285Z,22.06
2016-12-13T01:47:10.754Z,22.07
2016-12-13T01:47:44.225Z,22.02
2016-12-13T01:48:17.703Z,22.08
2016-12-13T01:48:51.166Z,22.06
2016-12-13T01:49:24.648Z,22.08
2016-12-13T01:49:58.110Z,22.02
2016-12-13T01:50:31.577Z,21.95
2016-12-13T01:51:05.047Z,21.98
2016-12-13T01:51:38.514Z,21.98
2016-12-13T01:52:11.993Z,22.02
2016-12-13T01:52:45.456Z,21.96
2016-12-13T01:53:18.929Z,21.99
2016-12-13T01:53:52.397Z,21.98
2016-12-13T01:54:25.875Z,22.04
2016-12-13T01:54:59.354Z,21.93
2016-12-13T01:55:32.823Z,22.02
2016-12-13T01:56:06.292Z,22.08
2016-12-13T01:56:39.770Z,21.95
2016-12-13T01:57:13.231Z,22.08
2016-12-13T01:57:46.706Z,22.07
2016-12-13T01:58:20.172Z,22
2016-12-13T01:58:53.651Z,22
2016-12-13T01:59:27.115Z,22.07
2016-12-13T02:00:00.581Z,22.06
2016-12-13T02:00:34.060Z,22.04
2016-12-13T02:01:07.523Z,21.96
2016-12-13T02:01:40.997Z,21.99
2016-12-13T02:02:14.465Z,21.93
2016-12-13T02:02:47.945Z,21.96
2016-12-13T02:03:21.421Z,22
2016-12-13T02:03:54.889Z,21.99
2016-12-13T02:04:28.353Z,22.02
2016-12-13T02:05:01.815Z,22
2016-12-13T02:05:35.286Z,22
2016-12-13T02:06:08.756Z,21.99
2016-12-13T02:06:42.238Z,21.99
2016-12-13T02:07:15.718Z,21.96
2016-12-13T02:07:49.197Z,21.96
2016-12-13T02:08:22.665Z,21.96
2016-12-13T02:08:56.130Z,21.95
2016-12-13T02:09:29.610Z,21.96
2016-12-13T02:10:03.075Z,21.96
2016-12-13T02:10:36.534Z,21.96
2016-12-13T02:11:10.010Z,21.96
2016-12-13T02:11:43.488Z,21.98
2016-12-13T02:12:16.957Z,21.98
2016-12-13T02:12:50.421Z,21.99
2016-12-13T02:13:23.883Z,22.04
2016-12-13T02:13:57.366Z,22
2016-12-13T02:14:30.828Z,21.99
2016-12-13T02:15:04.309Z,22
2016-12-13T02:15:37.785Z,22
2016-12-13T02:16:11.265Z,21.95
2016-12-13T02:16:44.733Z,21.95
2016-12-13T02:17:18.201Z,21.96
2016-12-13T02:17:51.678Z,22.04
2016-12-13T02:18:25.142Z,21.99
2016-12-13T02:18:58.606Z,21.96
2016-12-13T02:19:32.085Z,21.99
2016-12-13T02:20:05.564Z,21.95
2016-12-13T02:20:39.041Z,21.93
2016-12-13T02:21:12.513Z,21.96
2016-12-13T02:21:45.977Z,22
2016-12-13T02:22:19.454Z,21.92
2016-12-13T02:22:52.919Z,22.02
2016-12-13T02:23:26.379Z,22
2016-12-13T02:23:59.853Z,22
2016-12-13T02:24:33.331Z,21.96
2016-12-13T02:25:06.801Z,21.96
2016-12-13T02:25:40.269Z,21.99
2016-12-13T02:26:13.744Z,21.92
2016-12-13T02:26:47.209Z,22
2016-12-13T02:27:20.671Z,21.91
2016-12-13T02:27:54.147Z,21.96
2016-12-13T02:28:27.623Z,21.98
2016-12-13T02:29:01.092Z,21.88
2016-12-13T02:29:34.561Z,21.93
2016-12-13T02:30:08.039Z,21.77
2016-12-13T02:30:41.502Z,21.91
2016-12-13T02:31:14.975Z,21.93
2016-12-13T02:31:48.443Z,21.88
2016-12-13T02:32:21.921Z,21.93
2016-12-13T02:32:55.406Z,21.91
2016-12-13T02:33:28.869Z,21.88
2016-12-13T02:34:02.337Z,21.88
2016-12-13T02:34:35.816Z,21.91
2016-12-13T02:35:09.279Z,21.92
2016-12-13T02:35:42.752Z,21.85
2016-12-13T02:36:16.222Z,21.8
2016-12-13T02:36:49.698Z,21.93
2016-12-13T02:37:23.182Z,21.79
2016-12-13T02:37:56.659Z,21.91
2016-12-13T02:38:30.129Z,21.91
2016-12-13T02:39:03.597Z,21.91
2016-12-13T02:39:37.073Z,21.89
2016-12-13T02:40:10.538Z,21.93
2016-12-13T02:40:44.001Z,21.76
2016-12-13T02:41:17.480Z,21.82
2016-12-13T02:41:50.962Z,21.77
2016-12-13T02:42:24.436Z,21.73
2016-12-13T02:42:57.904Z,21.8
2016-12-13T02:43:31.373Z,21.75
2016-12-13T02:44:04.853Z,21.85
2016-12-13T02:44:38.315Z,21.79
2016-12-13T02:45:11.788Z,21.83
2016-12-13T02:45:45.258Z,21.8
2016-12-13T02:46:18.738Z,21.76
2016-12-13T02:46:52.204Z,21.8
2016-12-13T02:47:25.676Z,21.73
2016-12-13T02:47:59.143Z,21.8
2016-12-13T02:48:32.606Z,21.89
2016-12-13T02:49:06.083Z,21.73
2016-12-13T02:49:39.551Z,21.76
2016-12-13T02:50:13.027Z,21.79
2016-12-13T02:50:46.504Z,21.76
2016-12-13T02:51:19.975Z,21.88
2016-12-13T02:51:53.447Z,21.82
2016-12-13T02:52:26.920Z,21.82
2016-12-13T02:53:00.383Z,21.8
2016-12-13T02:53:33.858Z,21.8
2016-12-13T02:54:07.327Z,21.79
2016-12-13T02:54:40.805Z,21.83
2016-12-13T02:55:14.280Z,21.82
2016-12-13T02:55:47.749Z,21.79
2016-12-13T02:56:21.216Z,21.8
2016-12-13T02:56:54.692Z,21.8
2016-12-13T02:57:28.158Z,21.76
2016-12-13T02:58:01.620Z,21.82
2016-12-13T02:58:35.099Z,21.85
2016-12-13T02:59:08.578Z,21.82
2016-12-13T02:59:42.056Z,21.79
2016-12-13T03:00:15.525Z,21.82
2016-12-13T03:00:48.991Z,21.8
2016-12-13T03:01:22.468Z,21.83
2016-12-13T03:01:55.934Z,21.85
2016-12-13T03:02:29.396Z,21.88
2016-12-13T03:03:02.873Z,21.82
2016-12-13T03:03:36.354Z,21.77
2016-12-13T03:04:09.839Z,21.83
2016-12-13T03:04:43.324Z,21.85
2016-12-13T03:05:16.802Z,21.77
2016-12-13T03:05:50.272Z,21.77
2016-12-13T03:06:23.742Z,21.8
2016-12-13T03:06:57.219Z,21.73
2016-12-13T03:07:30.682Z,21.76
2016-12-13T03:08:04.165Z,21.76
2016-12-13T03:08:37.640Z,21.77
2016-12-13T03:09:11.110Z,21.8
2016-12-13T03:09:44.586Z,21.77
2016-12-13T03:10:18.063Z,21.76
2016-12-13T03:10:51.532Z,21.76
2016-12-13T03:11:25.000Z,21.82
2016-12-13T03:11:58.479Z,21.76
2016-12-13T03:12:31.942Z,21.7
2016-12-13T03:13:05.416Z,21.72
2016-12-13T03:13:38.886Z,21.76
2016-12-13T03:14:12.361Z,21.79
2016-12-13T03:14:45.839Z,21.79
2016-12-13T03:15:19.309Z,21.82
2016-12-13T03:15:52.779Z,21.75
2016-12-13T03:16:26.256Z,21.76
2016-12-13T03:16:59.718Z,21.75
2016-12-13T03:17:33.190Z,21.76
2016-12-13T03:18:06.660Z,21.73
2016-12-13T03:18:40.137Z,21.77
2016-12-13T03:19:13.616Z,21.8
2016-12-13T03:19:47.088Z,21.76
2016-12-13T03:20:20.558Z,21.76
2016-12-13T03:20:54.033Z,21.77
2016-12-13T03:21:27.494Z,21.76
2016-12-13T03:22:00.970Z,21.73
2016-12-13T03:22:34.439Z,21.77
2016-12-13T03:23:07.911Z,21.7
2016-12-13T03:23:41.391Z,21.77
2016-12-13T03:24:14.860Z,21.8
2016-12-13T03:24:48.328Z,21.73
2016-12-13T03:25:21.807Z,21.75
2016-12-13T03:25:55.270Z,21.7
2016-12-13T03:26:28.743Z,21.79
2016-12-13T03:27:02.211Z,21.77
2016-12-13T03:27:35.691Z,21.69
2016-12-13T03:28:09.168Z,21.82
2016-12-13T03:28:42.636Z,21.73
2016-12-13T03:29:16.103Z,21.76
2016-12-13T03:29:49.580Z,21.72
2016-12-13T03:30:23.045Z,21.72
2016-12-13T03:30:56.507Z,21.76
2016-12-13T03:31:29.985Z,21.76
2016-12-13T03:32:03.465Z,21.7
2016-12-13T03:32:36.944Z,21.75
2016-12-13T03:33:10.413Z,21.73
2016-12-13T03:33:43.882Z,21.72
2016-12-13T03:34:17.359Z,21.7
2016-12-13T03:34:50.822Z,21.76
2016-12-13T03:35:24.297Z,21.69
2016-12-13T03:35:57.768Z,21.69
2016-12-13T03:36:31.834Z,21.72
2016-12-13T03:37:05.303Z,21.76
2016-12-13T03:37:38.780Z,21.69
2016-12-13T03:38:12.261Z,21.7
2016-12-13T03:38:45.727Z,21.73
2016-12-13T03:39:19.189Z,21.7
2016-12-13T03:39:52.666Z,21.67
2016-12-13T03:40:26.150Z,21.67
2016-12-13T03:40:59.626Z,21.73
2016-12-13T03:41:33.095Z,21.72
2016-12-13T03:42:06.563Z,21.7
2016-12-13T03:42:40.042Z,21.73
2016-12-13T03:43:13.504Z,21.7
2016-12-13T03:43:46.978Z,21.72
2016-12-13T03:44:20.445Z,21.66
2016-12-13T03:44:53.923Z,21.7
2016-12-13T03:45:27.417Z,21.69
2016-12-13T03:46:00.898Z,21.66
2016-12-13T03:46:34.371Z,21.69
2016-12-13T03:47:07.841Z,21.7
2016-12-13T03:47:41.310Z,21.75
2016-12-13T03:48:14.788Z,21.69
2016-12-13T03:48:48.250Z,21.67
2016-12-13T03:49:21.722Z,21.7
2016-12-13T03:49:55.191Z,21.66
2016-12-13T03:50:28.671Z,21.64
2016-12-13T03:51:02.146Z,21.69
2016-12-13T03:51:35.616Z,21.66
2016-12-13T03:52:09.086Z,21.66
2016-12-13T03:52:42.563Z,21.67
2016-12-13T03:53:16.025Z,21.72
2016-12-13T03:53:49.499Z,21.64
2016-12-13T03:54:22.968Z,21.67
2016-12-13T03:54:56.447Z,21.66
2016-12-13T03:55:29.930Z,21.72
2016-12-13T03:56:03.406Z,21.62
2016-12-13T03:56:36.876Z,21.72
2016-12-13T03:57:10.345Z,21.67
2016-12-13T03:57:43.823Z,21.7
2016-12-13T03:58:17.288Z,21.67
2016-12-13T03:58:50.770Z,21.64
2016-12-13T03:59:24.233Z,21.7
2016-12-13T03:59:57.719Z,21.72
2016-12-13T04:00:31.193Z,21.7
2016-12-13T04:01:04.668Z,21.62
2016-12-13T04:01:38.139Z,21.64
2016-12-13T04:02:11.607Z,21.58
2016-12-13T04:02:45.086Z,21.61
2016-12-13T04:03:18.548Z,21.61
2016-12-13T04:03:52.021Z,21.73
2016-12-13T04:04:25.490Z,21.69
2016-12-13T04:04:58.969Z,21.64
2016-12-13T04:05:32.445Z,21.6
2016-12-13T04:06:05.917Z,21.64
2016-12-13T04:06:39.382Z,21.67
2016-12-13T04:07:12.861Z,21.7
2016-12-13T04:07:46.323Z,21.7
2016-12-13T04:08:19.797Z,21.66
2016-12-13T04:08:53.269Z,21.67
2016-12-13T04:09:26.742Z,21.7
2016-12-13T04:10:00.227Z,21.7
2016-12-13T04:10:33.706Z,21.72
2016-12-13T04:11:07.174Z,21.7
2016-12-13T04:11:40.644Z,21.57
2016-12-13T04:12:14.122Z,21.58
2016-12-13T04:12:47.584Z,21.7
2016-12-13T04:13:21.057Z,21.73
2016-12-13T04:13:54.528Z,21.62
2016-12-13T04:14:28.007Z,21.55
2016-12-13T04:15:01.489Z,21.69
2016-12-13T04:15:34.966Z,21.69
2016-12-13T04:16:08.451Z,21.6
2016-12-13T04:16:41.920Z,21.61
2016-12-13T04:17:15.388Z,21.62
2016-12-13T04:17:48.867Z,21.61
2016-12-13T04:18:22.329Z,21.58
2016-12-13T04:18:55.813Z,21.64
2016-12-13T04:19:29.276Z,21.66
2016-12-13T04:20:02.755Z,21.51
2016-12-13T04:20:36.232Z,21.6
2016-12-13T04:21:09.696Z,21.58
2016-12-13T04:21:43.164Z,21.52
2016-12-13T04:22:16.642Z,21.55
2016-12-13T04:22:50.105Z,21.62
2016-12-13T04:23:23.578Z,21.61
2016-12-13T04:23:57.046Z,21.6
2016-12-13T04:24:30.525Z,21.55
2016-12-13T04:25:04.009Z,21.6
2016-12-13T04:25:37.487Z,21.61
2016-12-13T04:26:10.955Z,21.58
2016-12-13T04:26:44.424Z,21.61
2016-12-13T04:27:17.903Z,21.57
2016-12-13T04:27:51.366Z,21.72
2016-12-13T04:28:24.838Z,21.6
2016-12-13T04:28:58.308Z,21.62
2016-12-13T04:29:31.787Z,21.57
2016-12-13T04:30:05.262Z,21.6
2016-12-13T04:30:38.733Z,21.62
2016-12-13T04:31:12.202Z,21.51
2016-12-13T04:31:45.682Z,21.52
2016-12-13T04:32:19.141Z,21.5
2016-12-13T04:32:52.616Z,21.6
2016-12-13T04:33:26.083Z,21.51
2016-12-13T04:33:59.565Z,21.51
2016-12-13T04:34:33.048Z,21.52
2016-12-13T04:35:06.524Z,21.45
2016-12-13T04:35:39.993Z,21.61
2016-12-13T04:36:13.461Z,21.55
2016-12-13T04:36:46.939Z,21.52
2016-12-13T04:37:20.403Z,21.55
2016-12-13T04:37:53.877Z,21.51
2016-12-13T04:38:27.346Z,21.51
2016-12-13T04:39:00.826Z,21.54
2016-12-13T04:39:34.305Z,21.5
2016-12-13T04:40:07.786Z,21.52
2016-12-13T04:40:41.254Z,21.48
2016-12-13T04:41:14.721Z,21.51
2016-12-13T04:41:48.197Z,21.48
2016-12-13T04:42:21.663Z,21.58
2016-12-13T04:42:55.135Z,21.57
2016-12-13T04:43:28.606Z,21.54
2016-12-13T04:44:02.085Z,21.57
2016-12-13T04:44:35.559Z,21.51
2016-12-13T04:45:09.030Z,21.51
2016-12-13T04:45:42.498Z,21.48
2016-12-13T04:46:15.978Z,21.54
2016-12-13T04:46:49.440Z,21.52
2016-12-13T04:47:22.913Z,21.51
2016-12-13T04:47:56.384Z,21.46
2016-12-13T04:48:29.862Z,21.55
2016-12-13T04:49:03.337Z,21.52
2016-12-13T04:49:36.806Z,21.54
2016-12-13T04:50:10.269Z,21.55
2016-12-13T04:50:43.735Z,21.57
2016-12-13T04:51:17.215Z,21.55
2016-12-13T04:51:50.674Z,21.5
2016-12-13T04:52:24.152Z,21.51
2016-12-13T04:52:57.635Z,21.52
2016-12-13T04:53:31.113Z,21.58
2016-12-13T04:54:04.583Z,21.52
2016-12-13T04:54:38.048Z,21.51
2016-12-13T04:55:11.524Z,21.52
2016-12-13T04:55:44.991Z,21.52
2016-12-13T04:56:18.455Z,21.45
2016-12-13T04:56:51.932Z,21.58
2016-12-13T04:57:25.412Z,21.55
2016-12-13T04:57:58.890Z,21.57
2016-12-13T04:58:32.359Z,21.55
2016-12-13T04:59:05.827Z,21.54
2016-12-13T04:59:39.305Z,21.54
2016-12-13T05:00:12.768Z,21.52
2016-12-13T05:00:46.241Z,21.52
2016-12-13T05:01:19.712Z,21.54
2016-12-13T05:01:53.190Z,21.52
2016-12-13T05:02:26.664Z,21.46
2016-12-13T05:03:00.134Z,21.58
2016-12-13T05:03:33.596Z,21.5
2016-12-13T05:04:07.059Z,21.51
2016-12-13T05:04:40.534Z,21.51
2016-12-13T05:05:14.003Z,21.54
2016-12-13T05:05:47.479Z,21.55
2016-12-13T05:06:20.978Z,21.58
2016-12-13T05:06:54.454Z,21.54
2016-12-13T05:07:27.926Z,21.57
2016-12-13T05:08:01.397Z,21.46
2016-12-13T05:08:34.870Z,21.5
2016-12-13T05:09:08.340Z,21.7
2016-12-13T05:09:41.805Z,21.73
2016-12-13T05:10:15.275Z,21.69
2016-12-13T05:10:48.749Z,21.58
2016-12-13T05:11:22.227Z,21.55
2016-12-13T05:11:55.709Z,21.46
2016-12-13T05:12:29.186Z,21.55
2016-12-13T05:13:02.653Z,21.43
2016-12-13T05:13:36.114Z,21.5
2016-12-13T05:14:09.597Z,21.6
2016-12-13T05:14:43.065Z,21.55
2016-12-13T05:15:16.551Z,21.72
2016-12-13T05:15:50.027Z,21.72
2016-12-13T05:16:23.492Z,21.83
2016-12-13T05:16:56.973Z,21.8
2016-12-13T05:17:30.448Z,21.79
2016-12-13T05:18:03.918Z,21.83
2016-12-13T05:18:37.391Z,21.79
2016-12-13T05:19:10.845Z,21.88
2016-12-13T05:19:44.326Z,21.95
2016-12-13T05:20:17.796Z,21.91
2016-12-13T05:20:51.269Z,22.04
2016-12-13T05:21:24.751Z,22.04
2016-12-13T05:21:58.233Z,22
2016-12-13T05:22:31.714Z,22
2016-12-13T05:23:05.200Z,22.02
2016-12-13T05:23:38.683Z,21.99
2016-12-13T05:24:12.163Z,22.04
2016-12-13T05:24:45.634Z,22.08
2016-12-13T05:25:19.105Z,22.06
2016-12-13T05:25:52.581Z,22.06
2016-12-13T05:26:26.042Z,22.08
2016-12-13T05:26:59.516Z,22.1
2016-12-13T05:27:32.990Z,22.07
2016-12-13T05:28:06.466Z,22.07
2016-12-13T05:28:39.948Z,22.04
2016-12-13T05:29:13.430Z,22.02
2016-12-13T05:29:46.917Z,22.07
2016-12-13T05:30:20.399Z,22.04
2016-12-13T05:30:53.879Z,22.04
2016-12-13T05:31:27.349Z,22.04
2016-12-13T05:32:00.822Z,22.08
2016-12-13T05:32:34.292Z,22.08
2016-12-13T05:33:07.769Z,22.08
2016-12-13T05:33:41.246Z,22.11
2016-12-13T05:34:14.717Z,22.08
2016-12-13T05:34:48.191Z,22.04
2016-12-13T05:35:21.669Z,22.06
2016-12-13T05:35:55.145Z,22.08
2016-12-13T05:36:28.633Z,22.07
2016-12-13T05:37:02.110Z,22.11
2016-12-13T05:37:35.581Z,22.04
2016-12-13T05:38:09.052Z,22.13
2016-12-13T05:38:42.527Z,22.18
2016-12-13T05:39:15.988Z,22.08
2016-12-13T05:39:49.462Z,22.08
2016-12-13T05:40:22.935Z,22.04
2016-12-13T05:40:56.412Z,22.11
2016-12-13T05:41:29.895Z,22.08
2016-12-13T05:42:03.380Z,21.96
2016-12-13T05:42:36.866Z,21.89
2016-12-13T05:43:10.356Z,21.77
2016-12-13T05:43:43.827Z,21.69
2016-12-13T05:44:17.293Z,21.7
2016-12-13T05:44:50.759Z,21.66
2016-12-13T05:45:24.240Z,21.7
2016-12-13T05:45:57.703Z,21.61
2016-12-13T05:46:31.187Z,21.48
2016-12-13T05:47:04.658Z,21.55
2016-12-13T05:47:38.126Z,21.54
2016-12-13T05:48:11.614Z,21.54
2016-12-13T05:48:45.093Z,21.5
2016-12-13T05:49:18.579Z,21.55
2016-12-13T05:49:52.073Z,21.48
2016-12-13T05:51:53.212Z,21.52
2016-12-13T05:52:26.686Z,21.48
2016-12-13T05:53:00.152Z,21.54
2016-12-13T05:53:33.627Z,21.39
2016-12-13T05:54:07.097Z,21.43
2016-12-13T05:54:40.560Z,21.57
2016-12-13T05:55:14.033Z,21.43
2016-12-13T05:55:47.497Z,21.4
2016-12-13T05:56:20.978Z,21.5
2016-12-13T05:56:54.443Z,21.4
2016-12-13T05:57:27.906Z,21.39
2016-12-13T05:58:01.365Z,21.42
2016-12-13T05:58:34.827Z,21.37
2016-12-13T05:59:08.306Z,21.35
2016-12-13T05:59:41.784Z,21.36
2016-12-13T06:00:15.261Z,21.35
2016-12-13T06:00:48.745Z,21.33
2016-12-13T06:01:22.214Z,21.32
2016-12-13T06:01:55.684Z,21.32
2016-12-13T06:02:29.144Z,21.35
2016-12-13T06:03:02.625Z,21.22
2016-12-13T06:03:36.098Z,21.15
2016-12-13T06:04:09.582Z,21.22
2016-12-13T06:04:43.041Z,21.2
2016-12-13T06:05:16.512Z,21.07
2016-12-13T06:05:49.985Z,21.12
2016-12-13T06:06:23.455Z,21.06
2016-12-13T06:08:24.577Z,20.92
2016-12-13T06:08:58.167Z,20.99
2016-12-13T06:09:31.643Z,20.88
2016-12-13T06:10:05.118Z,21
2016-12-13T06:10:38.613Z,21.07
2016-12-13T06:11:12.083Z,21.07
2016-12-13T06:11:45.557Z,21.24
2016-12-13T06:12:19.035Z,21.37
2016-12-13T06:12:52.505Z,21.39
2016-12-13T06:13:25.982Z,21.52
2016-12-13T06:13:59.447Z,21.72
2016-12-13T06:14:32.928Z,21.7
2016-12-13T06:15:06.412Z,21.66
2016-12-13T06:15:39.877Z,21.73
2016-12-13T06:16:13.350Z,21.79
2016-12-13T06:16:46.818Z,21.79
2016-12-13T06:17:20.295Z,21.8
2016-12-13T06:17:53.783Z,21.85
2016-12-13T06:18:27.262Z,21.95
2016-12-13T06:19:00.749Z,21.93
2016-12-13T06:19:34.232Z,21.96
2016-12-13T06:20:07.719Z,21.95
2016-12-13T06:20:41.195Z,22.04
2016-12-13T06:21:14.671Z,22.07
2016-12-13T06:21:48.150Z,22.06
2016-12-13T06:22:21.612Z,22.07
2016-12-13T06:22:55.073Z,22.13
2016-12-13T06:23:28.549Z,22.08
2016-12-13T06:24:02.043Z,22.14
2016-12-13T06:24:35.508Z,22.04
2016-12-13T06:25:08.980Z,21.96
2016-12-13T06:25:42.443Z,21.93
2016-12-13T06:26:15.915Z,21.75
2016-12-13T06:26:49.415Z,21.76
2016-12-13T06:27:22.877Z,21.76
2016-12-13T06:27:56.363Z,21.76
2016-12-13T06:28:29.825Z,21.73
2016-12-13T06:29:03.304Z,21.64
2016-12-13T06:29:36.778Z,21.7
2016-12-13T06:30:10.262Z,21.67
2016-12-13T06:30:43.724Z,21.69
2016-12-13T06:31:17.211Z,21.64
2016-12-13T06:31:50.700Z,21.69
2016-12-13T06:32:24.178Z,21.52
2016-12-13T06:32:57.655Z,21.61
2016-12-13T06:33:31.126Z,21.61
2016-12-13T06:34:04.594Z,21.6
2016-12-13T06:34:38.062Z,21.57
2016-12-13T06:35:11.536Z,21.55
2016-12-13T06:35:44.988Z,21.66
2016-12-13T06:36:18.480Z,21.58
2016-12-13T06:36:51.961Z,21.58
2016-12-13T06:37:25.448Z,21.58
2016-12-13T06:37:58.925Z,21.54
2016-12-13T06:38:32.403Z,21.6
2016-12-13T06:39:05.875Z,21.7
2016-12-13T06:41:07.590Z,21.77
2016-12-13T06:41:41.065Z,21.75
2016-12-13T06:42:14.539Z,21.79
2016-12-13T06:42:48.000Z,21.8
2016-12-13T06:43:21.483Z,21.76
2016-12-13T06:43:54.947Z,21.77
2016-12-13T06:44:28.455Z,21.72
2016-12-13T06:45:01.961Z,21.69
2016-12-13T06:45:35.424Z,21.66
2016-12-13T06:46:08.894Z,21.6
2016-12-13T06:46:42.345Z,21.58
2016-12-13T06:47:15.810Z,21.62
2016-12-13T06:47:49.283Z,21.51
2016-12-13T06:48:22.750Z,21.55
2016-12-13T06:48:56.242Z,21.51
2016-12-13T06:49:29.716Z,21.39
2016-12-13T06:50:03.199Z,21.4
2016-12-13T06:50:36.687Z,21.36
2016-12-13T06:51:10.170Z,21.42
2016-12-13T06:51:43.645Z,21.36
2016-12-13T06:52:17.120Z,21.33
2016-12-13T06:52:50.579Z,21.32
2016-12-13T06:53:24.043Z,21.3
2016-12-13T06:53:57.517Z,21.21
2016-12-13T06:54:31.000Z,21.2
2016-12-13T06:55:04.478Z,21.22
2016-12-13T06:55:37.981Z,21.2
2016-12-13T06:56:11.474Z,21.2
2016-12-13T06:56:44.951Z,21.22
2016-12-13T06:57:18.440Z,21.2
2016-12-13T06:57:51.930Z,21.15
2016-12-13T06:58:25.405Z,21.2
2016-12-13T06:58:58.893Z,21.21
2016-12-13T06:59:32.355Z,21.2
2016-12-13T07:00:05.832Z,21.17
2016-12-13T07:00:39.312Z,21.14
2016-12-13T07:01:12.797Z,21.09
2016-12-13T07:01:46.268Z,21.12
2016-12-13T07:02:19.762Z,21.25
2016-12-13T07:02:53.226Z,21.32
2016-12-13T07:03:26.704Z,21.4
2016-12-13T07:04:57.237Z,21.64
2016-12-13T07:05:30.703Z,21.7
2016-12-13T07:06:04.175Z,21.73
2016-12-13T07:06:37.632Z,21.79
2016-12-13T07:07:11.111Z,21.83
2016-12-13T07:07:44.558Z,21.83
2016-12-13T07:08:18.026Z,21.8
2016-12-13T07:08:52.715Z,21.96
2016-12-13T07:09:26.193Z,22
2016-12-13T07:09:59.659Z,21.99
2016-12-13T07:10:33.126Z,22.04
2016-12-13T07:11:06.593Z,22.02
2016-12-13T07:11:40.058Z,22.07
2016-12-13T07:12:13.534Z,22.07
2016-12-13T07:13:43.465Z,22.26
2016-12-13T07:14:16.949Z,22.2
2016-12-13T07:14:50.417Z,22.28
2016-12-13T07:15:23.895Z,22.29
2016-12-13T07:15:57.362Z,22.26
2016-12-13T07:16:30.838Z,22.33
2016-12-13T07:17:04.306Z,22.32
2016-12-13T07:17:38.754Z,22.48
2016-12-13T07:19:06.393Z,22.41
2016-12-13T07:19:39.876Z,22.45
2016-12-13T07:20:13.361Z,22.48
2016-12-13T07:20:46.823Z,22.5